createdAt,value
2022-11-09T00:00:47.771Z,15.00
2022-11-09T00:03:40.744Z,14.90
2022-11-09T00:06:33.053Z,14.90
2022-11-09T00:09:27.342Z,15.10
2022-11-09T00:12:14.434Z,15.20
2022-11-09T00:15:03.194Z,15.10
2022-11-09T00:17:50.862Z,15.10
2022-11-09T00:20:44.530Z,15.10
2022-11-09T00:23:42.404Z,15.20
2022-11-09T00:26:28.970Z,15.20
2022-11-09T00:29:21.589Z,15.10
2022-11-09T00:32:13.645Z,15.00
2022-11-09T00:35:02.283Z,15.00
2022-11-09T00:37:48.103Z,14.90
2022-11-09T00:40:33.691Z,15.00
2022-11-09T00:43:19.434Z,14.80
2022-11-09T00:46:05.909Z,14.70
2022-11-09T00:48:51.388Z,14.80
2022-11-09T00:52:14.310Z,14.80
2022-11-09T00:55:21.157Z,14.70
2022-11-09T00:58:06.622Z,14.80
2022-11-09T01:00:53.502Z,14.60
2022-11-09T01:04:16.509Z,14.50
2022-11-09T01:07:02.149Z,14.60
2022-11-09T01:09:48.343Z,14.60
2022-11-09T01:12:34.106Z,14.60
2022-11-09T01:15:19.504Z,14.70
2022-11-09T01:18:05.090Z,14.80
2022-11-09T01:20:51.160Z,14.80
2022-11-09T01:23:37.876Z,14.80
2022-11-09T01:26:23.651Z,14.80
2022-11-09T01:29:09.804Z,14.80
2022-11-09T01:31:56.005Z,15.00
2022-11-09T01:34:41.697Z,14.90
2022-11-09T01:37:26.995Z,14.60
2022-11-09T01:40:13.738Z,14.40
2022-11-09T01:42:59.737Z,14.60
2022-11-09T01:46:06.607Z,14.90
2022-11-09T01:48:59.058Z,15.00
2022-11-09T01:51:53.437Z,15.00
2022-11-09T01:54:55.192Z,15.10
2022-11-09T01:57:51.956Z,15.10
2022-11-09T02:00:41.560Z,15.00
2022-11-09T02:03:37.822Z,14.80
2022-11-09T02:06:27.687Z,14.60
2022-11-09T02:09:23.687Z,14.20
2022-11-09T02:12:10.288Z,14.50
2022-11-09T02:14:57.769Z,14.90
2022-11-09T02:17:46.041Z,15.10
2022-11-09T02:20:43.610Z,15.10
2022-11-09T02:23:29.895Z,15.20
2022-11-09T02:26:24.357Z,15.20
2022-11-09T02:29:14.336Z,15.10
2022-11-09T02:32:08.217Z,15.00
2022-11-09T02:34:54.599Z,14.80
2022-11-09T02:37:49.332Z,14.90
2022-11-09T02:40:38.436Z,15.00
2022-11-09T02:43:24.684Z,14.50
2022-11-09T02:46:10.491Z,14.50
2022-11-09T02:48:56.653Z,14.90
2022-11-09T02:51:42.199Z,14.60
2022-11-09T02:54:30.124Z,14.50
2022-11-09T02:57:16.646Z,14.30
2022-11-09T03:00:03.944Z,14.30
2022-11-09T03:02:49.708Z,14.00
2022-11-09T03:05:36.325Z,13.60
2022-11-09T03:08:21.998Z,14.00
2022-11-09T03:11:09.935Z,14.20
2022-11-09T03:13:55.891Z,14.40
2022-11-09T03:16:42.677Z,14.60
2022-11-09T03:19:33.840Z,14.90
2022-11-09T03:22:20.192Z,15.10
2022-11-09T03:25:07.735Z,15.00
2022-11-09T03:28:05.370Z,15.10
2022-11-09T03:30:51.493Z,15.00
2022-11-09T03:33:37.598Z,14.90
2022-11-09T03:36:23.269Z,14.90
2022-11-09T03:39:09.243Z,14.90
2022-11-09T03:41:54.991Z,15.00
2022-11-09T03:44:40.568Z,15.00
2022-11-09T03:47:26.105Z,15.00
2022-11-09T03:50:14.266Z,15.00
2022-11-09T03:53:01.030Z,14.90
2022-11-09T03:55:46.687Z,14.50
2022-11-09T03:58:32.440Z,14.50
2022-11-09T04:01:18.104Z,14.80
2022-11-09T04:04:03.541Z,14.90
2022-11-09T04:06:49.400Z,15.00
2022-11-09T04:09:34.957Z,15.00
2022-11-09T04:12:20.460Z,15.00
2022-11-09T04:15:06.459Z,15.00
2022-11-09T04:17:59.913Z,14.60
2022-11-09T04:20:45.733Z,14.60
2022-11-09T04:23:31.375Z,14.80
2022-11-09T04:26:17.044Z,14.80
2022-11-09T04:29:02.912Z,14.70
2022-11-09T04:31:49.530Z,14.80
2022-11-09T04:34:35.165Z,14.90
2022-11-09T04:37:20.854Z,14.80
2022-11-09T04:40:07.063Z,14.90
2022-11-09T04:42:53.086Z,15.00
2022-11-09T04:45:38.572Z,14.60
2022-11-09T04:48:23.821Z,14.30
2022-11-09T04:51:10.564Z,14.60
2022-11-09T04:53:56.609Z,13.80
2022-11-09T04:56:42.986Z,13.60
2022-11-09T04:59:30.234Z,14.00
2022-11-09T05:02:15.644Z,14.30
2022-11-09T05:05:01.132Z,14.60
2022-11-09T05:07:46.878Z,14.60
2022-11-09T05:10:33.083Z,14.70
2022-11-09T05:13:19.045Z,14.80
2022-11-09T05:16:05.362Z,14.90
2022-11-09T05:18:51.470Z,14.90
2022-11-09T05:21:37.134Z,14.90
2022-11-09T05:24:22.731Z,14.80
2022-11-09T05:27:08.737Z,14.70
2022-11-09T05:29:54.884Z,14.30
2022-11-09T05:32:40.451Z,14.50
2022-11-09T05:35:25.944Z,14.60
2022-11-09T05:38:11.738Z,14.60
2022-11-09T05:40:57.396Z,14.50
2022-11-09T05:43:44.912Z,14.10
2022-11-09T05:46:31.606Z,14.30
2022-11-09T05:49:17.318Z,14.20
2022-11-09T05:52:03.273Z,13.70
2022-11-09T05:54:49.023Z,13.50
2022-11-09T05:57:34.909Z,14.00
2022-11-09T06:00:20.985Z,14.20
2022-11-09T06:03:08.975Z,14.40
2022-11-09T06:05:54.278Z,14.40
2022-11-09T06:08:40.660Z,14.50
2022-11-09T06:11:28.573Z,14.60
2022-11-09T06:14:15.141Z,14.70
2022-11-09T06:17:00.637Z,14.80
2022-11-09T06:19:46.215Z,14.90
2022-11-09T06:22:31.982Z,15.00
2022-11-09T06:25:17.657Z,15.00
2022-11-09T06:28:03.297Z,14.70
2022-11-09T06:30:49.189Z,14.30
2022-11-09T06:33:36.061Z,14.10
2022-11-09T06:36:21.849Z,14.40
2022-11-09T06:39:09.093Z,14.80
2022-11-09T06:41:54.790Z,14.80
2022-11-09T06:44:40.167Z,14.60
2022-11-09T06:47:29.317Z,14.70
2022-11-09T06:50:16.159Z,14.60
2022-11-09T06:53:07.229Z,14.50
2022-11-09T06:55:53.040Z,14.60
2022-11-09T06:58:39.636Z,14.50
2022-11-09T07:01:28.771Z,14.00
2022-11-09T07:04:14.779Z,13.90
2022-11-09T07:07:01.004Z,13.80
2022-11-09T07:09:47.069Z,13.70
2022-11-09T07:12:34.639Z,13.30
2022-11-09T07:15:20.460Z,13.30
2022-11-09T07:18:10.550Z,13.20
2022-11-09T07:20:56.125Z,13.50
2022-11-09T07:23:43.904Z,13.90
2022-11-09T07:26:29.464Z,13.80
2022-11-09T07:29:15.694Z,13.70
2022-11-09T07:32:01.648Z,13.60
2022-11-09T07:34:48.174Z,13.70
2022-11-09T07:37:34.138Z,13.70
2022-11-09T07:40:20.458Z,14.20
2022-11-09T07:43:08.483Z,14.70
2022-11-09T07:45:56.619Z,14.90
2022-11-09T07:48:43.015Z,15.00
2022-11-09T07:51:28.812Z,14.80
2022-11-09T07:54:14.607Z,14.20
2022-11-09T07:57:03.043Z,14.30
2022-11-09T07:59:48.780Z,14.00
2022-11-09T08:02:34.402Z,14.00
2022-11-09T08:05:20.665Z,13.80
2022-11-09T08:08:08.179Z,13.70
2022-11-09T08:10:56.461Z,13.80
2022-11-09T08:13:42.264Z,14.10
2022-11-09T08:16:29.421Z,13.90
2022-11-09T08:19:17.327Z,13.70
2022-11-09T08:22:03.213Z,13.80
2022-11-09T08:24:50.254Z,13.90
2022-11-09T08:27:40.142Z,13.80
2022-11-09T08:30:27.526Z,14.00
2022-11-09T08:33:14.447Z,14.10
2022-11-09T08:35:59.867Z,14.50
2022-11-09T08:38:46.576Z,15.50
2022-11-09T08:41:31.864Z,14.60
2022-11-09T08:44:20.506Z,14.50
2022-11-09T08:47:06.455Z,14.10
2022-11-09T08:49:52.248Z,13.80
2022-11-09T08:55:48.413Z,14.20
2022-11-09T08:58:36.003Z,14.60
2022-11-09T09:01:22.022Z,14.90
2022-11-09T09:04:09.408Z,15.10
2022-11-09T09:06:57.053Z,14.30
2022-11-09T09:09:43.646Z,15.60
2022-11-09T09:12:28.878Z,15.20
2022-11-09T09:15:14.392Z,14.80
2022-11-09T09:18:01.888Z,15.70
2022-11-09T09:20:47.641Z,15.50
2022-11-09T09:23:36.092Z,16.10
2022-11-09T09:26:21.625Z,16.20
2022-11-09T09:29:08.247Z,16.10
2022-11-09T09:31:56.739Z,16.40
2022-11-09T09:34:42.624Z,16.10
2022-11-09T09:37:28.549Z,16.00
2022-11-09T09:40:38.247Z,16.00
2022-11-09T09:43:43.987Z,16.10
2022-11-09T09:46:43.798Z,15.60
2022-11-09T09:49:32.047Z,15.40
2022-11-09T09:52:50.608Z,15.30
2022-11-09T09:55:50.798Z,15.50
2022-11-09T09:58:45.858Z,15.60
2022-11-09T10:01:41.235Z,15.50
2022-11-09T10:04:41.353Z,15.40
2022-11-09T10:07:38.554Z,15.80
2022-11-09T10:10:27.053Z,16.00
2022-11-09T10:13:24.599Z,16.20
2022-11-09T10:16:36.030Z,16.20
2022-11-09T10:19:29.376Z,15.80
2022-11-09T10:22:56.798Z,15.00
2022-11-09T10:29:15.608Z,15.70
2022-11-09T10:32:11.697Z,15.90
2022-11-09T10:35:15.463Z,16.30
2022-11-09T10:38:01.314Z,16.40
2022-11-09T10:41:18.734Z,16.50
2022-11-09T10:44:23.762Z,16.60
2022-11-09T10:47:29.039Z,16.40
2022-11-09T10:50:47.035Z,16.50
2022-11-09T10:54:21.158Z,16.50
2022-11-09T10:57:25.856Z,16.10
2022-11-09T11:00:30.499Z,16.20
2022-11-09T11:03:37.083Z,16.10
2022-11-09T11:06:41.359Z,16.10
2022-11-09T11:09:45.990Z,16.20
2022-11-09T11:13:00.429Z,16.30
2022-11-09T11:16:15.967Z,16.10
2022-11-09T11:19:44.780Z,16.30
2022-11-09T11:22:49.607Z,16.50
2022-11-09T11:25:54.365Z,16.10
2022-11-09T11:32:50.143Z,16.00
2022-11-09T11:36:36.903Z,16.40
2022-11-09T11:39:50.505Z,16.30
2022-11-09T11:43:14.515Z,16.30
2022-11-09T11:46:44.422Z,15.80
2022-11-09T11:50:27.989Z,16.50
2022-11-09T11:53:51.473Z,16.30
2022-11-09T11:57:08.755Z,16.80
2022-11-09T12:00:18.154Z,16.90
2022-11-09T12:03:52.030Z,16.70
2022-11-09T12:07:14.534Z,16.80
2022-11-09T12:11:00.084Z,16.70
2022-11-09T12:14:37.808Z,16.50
2022-11-09T12:18:14.316Z,16.20
2022-11-09T12:21:52.665Z,16.50
2022-11-09T12:25:32.606Z,16.60
2022-11-09T12:28:39.597Z,16.80
2022-11-09T12:32:45.798Z,16.90
2022-11-09T12:36:11.998Z,17.20
2022-11-09T12:39:26.006Z,17.40
2022-11-09T12:42:45.332Z,17.50
2022-11-09T12:45:53.978Z,17.10
2022-11-09T12:49:03.348Z,17.10
2022-11-09T12:52:13.435Z,17.00
2022-11-09T12:55:24.006Z,16.20
2022-11-09T12:58:31.184Z,16.30
2022-11-09T13:01:35.394Z,16.50
2022-11-09T13:04:53.988Z,16.20
2022-11-09T13:08:05.753Z,15.90
2022-11-09T13:11:22.483Z,16.10
2022-11-09T13:14:38.028Z,16.10
2022-11-09T13:17:57.645Z,16.10
2022-11-09T13:21:23.931Z,16.20
2022-11-09T13:24:32.388Z,16.00
2022-11-09T13:27:48.394Z,16.10
2022-11-09T13:30:53.273Z,15.70
2022-11-09T13:34:38.648Z,15.60
2022-11-09T13:37:44.923Z,15.70
2022-11-09T13:40:50.308Z,15.90
2022-11-09T13:44:32.618Z,15.90
2022-11-09T13:47:49.575Z,15.90
2022-11-09T13:50:56.884Z,15.90
2022-11-09T13:54:04.276Z,16.00
2022-11-09T13:57:11.268Z,15.30
2022-11-09T14:00:25.395Z,15.30
2022-11-09T14:03:30.661Z,15.40
2022-11-09T14:06:35.314Z,15.30
2022-11-09T14:10:09.044Z,15.20
2022-11-09T14:13:36.904Z,15.00
2022-11-09T14:17:19.469Z,15.40
2022-11-09T14:20:47.043Z,15.50
2022-11-09T14:23:51.581Z,15.60
2022-11-09T14:27:00.621Z,15.90
2022-11-09T14:30:17.204Z,15.60
2022-11-09T14:33:29.243Z,15.50
2022-11-09T14:36:35.131Z,15.50
2022-11-09T14:39:40.245Z,15.30
2022-11-09T14:43:16.299Z,15.50
2022-11-09T14:46:23.583Z,15.80
2022-11-09T14:49:28.916Z,15.60
2022-11-09T14:52:33.331Z,15.20
2022-11-09T14:55:42.375Z,15.50
2022-11-09T14:58:47.856Z,15.60
2022-11-09T15:02:26.143Z,15.80
2022-11-09T15:05:39.292Z,15.90
2022-11-09T15:08:56.160Z,15.60
2022-11-09T15:18:56.332Z,14.50
2022-11-09T15:32:20.096Z,15.90
2022-11-09T15:35:27.260Z,16.00
2022-11-09T15:38:44.344Z,15.10
2022-11-09T15:41:49.090Z,14.90
2022-11-09T15:44:56.720Z,15.10
2022-11-09T15:51:23.250Z,15.00
2022-11-09T15:54:28.185Z,15.10
2022-11-09T15:57:32.899Z,15.30
2022-11-09T16:00:38.365Z,15.60
2022-11-09T16:03:43.074Z,15.50
2022-11-09T16:06:47.580Z,15.30
2022-11-09T16:09:52.086Z,15.50
2022-11-09T16:12:58.198Z,15.60
2022-11-09T16:16:05.342Z,14.40
2022-11-09T16:19:16.082Z,14.50
2022-11-09T16:22:20.594Z,14.60
2022-11-09T16:25:25.309Z,14.60
2022-11-09T16:28:29.810Z,15.40
2022-11-09T16:31:50.705Z,15.00
2022-11-09T16:35:23.501Z,15.20
2022-11-09T16:38:22.004Z,15.30
2022-11-09T16:41:26.558Z,15.70
2022-11-09T16:44:34.286Z,15.90
2022-11-09T16:47:47.645Z,15.80
2022-11-09T16:50:53.743Z,15.80
2022-11-09T16:53:58.085Z,15.80
2022-11-09T16:57:02.534Z,15.00
2022-11-09T17:00:09.583Z,14.90
2022-11-09T17:03:14.258Z,15.00
2022-11-09T17:06:20.040Z,14.90
2022-11-09T17:09:25.291Z,14.60
2022-11-09T17:12:30.989Z,15.80
2022-11-09T17:15:42.935Z,14.70
2022-11-09T17:18:47.193Z,14.80
2022-11-09T17:21:51.889Z,15.10
2022-11-09T17:24:56.366Z,15.60
2022-11-09T17:28:01.084Z,15.70
2022-11-09T17:31:13.251Z,15.10
2022-11-09T17:34:18.252Z,15.00
2022-11-09T17:37:23.401Z,15.50
2022-11-09T17:40:28.020Z,15.80
2022-11-09T17:43:34.331Z,15.90
2022-11-09T17:46:39.069Z,16.00
2022-11-09T17:49:44.229Z,15.50
2022-11-09T17:52:49.611Z,15.20
2022-11-09T17:55:54.643Z,15.00
2022-11-09T17:58:59.180Z,15.30
2022-11-09T18:02:04.081Z,15.40
2022-11-09T18:05:12.278Z,15.70
2022-11-09T18:08:16.990Z,15.70
2022-11-09T18:11:22.888Z,15.70
2022-11-09T18:14:27.904Z,15.70
2022-11-09T18:17:34.184Z,15.60
2022-11-09T18:20:41.550Z,15.50
2022-11-09T18:23:46.770Z,14.80
2022-11-09T18:26:51.159Z,14.50
2022-11-09T18:29:56.605Z,14.90
2022-11-09T18:33:02.097Z,15.10
2022-11-09T18:36:18.533Z,15.50
2022-11-09T18:39:26.404Z,15.50
2022-11-09T18:42:31.134Z,15.50
2022-11-09T18:45:36.021Z,15.50
2022-11-09T18:48:40.568Z,15.50
2022-11-09T18:51:45.085Z,15.60
2022-11-09T18:54:49.725Z,15.50
2022-11-09T18:57:54.331Z,15.40
2022-11-09T19:01:03.973Z,15.50
2022-11-09T19:04:13.357Z,15.30
2022-11-09T19:07:18.226Z,15.10
2022-11-09T19:10:22.868Z,15.10
2022-11-09T19:13:27.183Z,14.60
2022-11-09T19:16:31.881Z,14.30
2022-11-09T19:19:37.935Z,14.20
2022-11-09T19:22:42.482Z,14.40
2022-11-09T19:25:46.660Z,14.40
2022-11-09T19:28:51.888Z,14.80
2022-11-09T19:31:56.723Z,14.80
2022-11-09T19:35:03.258Z,15.10
2022-11-09T19:38:09.560Z,14.40
2022-11-09T19:41:14.184Z,14.80
2022-11-09T19:44:19.289Z,15.10
2022-11-09T19:47:23.950Z,15.20
2022-11-09T19:50:32.787Z,15.20
2022-11-09T19:53:42.154Z,15.20
2022-11-09T19:56:47.842Z,14.20
2022-11-09T19:59:52.780Z,14.70
2022-11-09T20:02:59.140Z,14.80
2022-11-09T20:06:05.358Z,14.60
2022-11-09T20:09:10.185Z,14.80
2022-11-09T20:12:33.235Z,14.80
2022-11-09T20:15:37.990Z,15.00
2022-11-09T20:18:43.037Z,14.60
2022-11-09T20:21:49.820Z,14.70
2022-11-09T20:24:54.722Z,14.80
2022-11-09T20:27:58.973Z,14.70
2022-11-09T20:31:16.604Z,14.70
2022-11-09T20:34:21.310Z,14.60
2022-11-09T20:37:25.651Z,14.60
2022-11-09T20:40:30.052Z,14.70
2022-11-09T20:43:36.749Z,14.50
2022-11-09T20:46:40.870Z,14.50
2022-11-09T20:49:47.277Z,14.50
2022-11-09T20:52:51.752Z,14.50
2022-11-09T20:55:56.590Z,14.30
2022-11-09T20:59:01.318Z,14.40
2022-11-09T21:02:05.513Z,14.30
2022-11-09T21:05:09.978Z,14.20
2022-11-09T21:08:14.528Z,14.00
2022-11-09T21:11:20.137Z,14.30
2022-11-09T21:14:24.506Z,14.50
2022-11-09T21:17:29.176Z,14.70
2022-11-09T21:20:35.332Z,14.50
2022-11-09T21:23:58.783Z,14.60
2022-11-09T21:27:21.420Z,14.50
2022-11-09T21:30:26.550Z,14.30
2022-11-09T21:33:31.130Z,14.30
2022-11-09T21:36:35.483Z,14.30
2022-11-09T21:39:40.397Z,14.50
2022-11-09T21:42:44.661Z,14.50
2022-11-09T21:45:50.290Z,14.70
2022-11-09T21:48:55.004Z,14.70
2022-11-09T21:52:00.435Z,14.50
2022-11-09T21:55:05.443Z,14.80
2022-11-09T21:58:11.007Z,14.80
2022-11-09T22:01:16.419Z,14.80
2022-11-09T22:04:20.778Z,14.90
2022-11-09T22:07:24.882Z,14.70
2022-11-09T22:10:29.269Z,14.60
2022-11-09T22:13:53.345Z,14.50
2022-11-09T22:16:58.307Z,14.40
2022-11-09T22:20:21.773Z,14.50
2022-11-09T22:23:26.035Z,14.20
2022-11-09T22:26:32.329Z,14.30
2022-11-09T22:29:37.403Z,14.30
2022-11-09T22:32:41.813Z,14.30
2022-11-09T22:35:54.221Z,14.50
2022-11-09T22:38:58.837Z,14.50
2022-11-09T22:42:03.277Z,14.60
2022-11-09T22:45:08.073Z,14.60
2022-11-09T22:48:12.407Z,14.50
2022-11-09T22:51:18.265Z,14.50
2022-11-09T22:54:22.821Z,14.40
2022-11-09T22:57:26.925Z,14.40
2022-11-09T23:00:31.278Z,14.50
2022-11-09T23:03:36.322Z,14.50
2022-11-09T23:06:40.941Z,14.50
2022-11-09T23:09:45.599Z,14.40
2022-11-09T23:12:49.991Z,14.30
2022-11-09T23:15:59.996Z,14.40
2022-11-09T23:19:04.910Z,14.40
2022-11-09T23:22:09.198Z,14.50
2022-11-09T23:25:32.908Z,14.40
2022-11-09T23:28:37.639Z,14.50
2022-11-09T23:31:41.859Z,14.60
2022-11-09T23:34:46.384Z,14.40
2022-11-09T23:38:00.602Z,14.20
2022-11-09T23:41:07.549Z,14.20
2022-11-09T23:44:11.915Z,14.10
2022-11-09T23:47:16.707Z,14.10
2022-11-09T23:50:21.969Z,14.20
2022-11-09T23:53:28.048Z,14.30
2022-11-09T23:56:32.110Z,14.30
2022-11-09T23:59:36.433Z,14.40
